sensor_id;sensor_type;location;lat;lon;timestamp;temperature;humidity
17687;DHT22;8962;52.538;13.266;2022-07-30T00:00:38;20.90;99.90
17687;DHT22;8962;52.538;13.266;2022-07-30T00:03:05;20.90;99.90
17687;DHT22;8962;52.538;13.266;2022-07-30T00:05:32;20.80;99.90
17687;DHT22;8962;52.538;13.266;2022-07-30T00:07:59;20.80;99.90
17687;DHT22;8962;52.538;13.266;2022-07-30T00:10:26;20.80;99.90
17687;DHT22;8962;52.538;13.266;2022-07-30T00:12:53;20.70;99.90
17687;DHT22;8962;52.538;13.266;2022-07-30T00:15:21;20.70;99.90
17687;DHT22;8962;52.538;13.266;2022-07-30T00:17:50;20.60;99.90
17687;DHT22;8962;52.538;13.266;2022-07-30T00:20:16;20.60;99.90
17687;DHT22;8962;52.538;13.266;2022-07-30T00:22:44;20.50;99.90
17687;DHT22;8962;52.538;13.266;2022-07-30T00:25:10;20.50;99.90
17687;DHT22;8962;52.538;13.266;2022-07-30T00:27:38;20.40;99.90
17687;DHT22;8962;52.538;13.266;2022-07-30T00:30:06;20.40;99.90
17687;DHT22;8962;52.538;13.266;2022-07-30T00:32:34;20.40;99.90
17687;DHT22;8962;52.538;13.266;2022-07-30T00:35:03;20.30;99.90
17687;DHT22;8962;52.538;13.266;2022-07-30T00:37:30;20.30;99.90
17687;DHT22;8962;52.538;13.266;2022-07-30T00:39:57;20.30;99.90
17687;DHT22;8962;52.538;13.266;2022-07-30T00:42:36;20.20;99.90
17687;DHT22;8962;52.538;13.266;2022-07-30T00:45:04;20.20;99.90
17687;DHT22;8962;52.538;13.266;2022-07-30T00:47:32;20.10;99.90
17687;DHT22;8962;52.538;13.266;2022-07-30T00:49:59;20.10;99.90
17687;DHT22;8962;52.538;13.266;2022-07-30T00:52:30;20.10;99.90
17687;DHT22;8962;52.538;13.266;2022-07-30T00:54:58;20.10;99.90
17687;DHT22;8962;52.538;13.266;2022-07-30T00:57:27;20.10;99.90
17687;DHT22;8962;52.538;13.266;2022-07-30T00:59:54;20.10;99.90
17687;DHT22;8962;52.538;13.266;2022-07-30T01:02:22;20.00;99.90
17687;DHT22;8962;52.538;13.266;2022-07-30T01:04:49;20.00;99.90
17687;DHT22;8962;52.538;13.266;2022-07-30T01:07:16;20.00;99.90
17687;DHT22;8962;52.538;13.266;2022-07-30T01:09:44;19.90;99.90
17687;DHT22;8962;52.538;13.266;2022-07-30T01:12:13;19.90;99.90
17687;DHT22;8962;52.538;13.266;2022-07-30T01:14:42;19.90;99.90
17687;DHT22;8962;52.538;13.266;2022-07-30T01:17:09;19.90;99.90
17687;DHT22;8962;52.538;13.266;2022-07-30T01:19:38;19.80;99.90
17687;DHT22;8962;52.538;13.266;2022-07-30T01:22:26;19.80;99.90
17687;DHT22;8962;52.538;13.266;2022-07-30T01:25:04;19.80;99.90
17687;DHT22;8962;52.538;13.266;2022-07-30T01:27:39;19.70;99.90
17687;DHT22;8962;52.538;13.266;2022-07-30T01:30:09;19.60;99.90
17687;DHT22;8962;52.538;13.266;2022-07-30T01:32:40;19.60;99.90
17687;DHT22;8962;52.538;13.266;2022-07-30T01:35:09;19.60;99.90
17687;DHT22;8962;52.538;13.266;2022-07-30T01:37:38;19.60;99.90
17687;DHT22;8962;52.538;13.266;2022-07-30T01:40:06;19.60;99.90
17687;DHT22;8962;52.538;13.266;2022-07-30T01:42:37;19.50;99.90
17687;DHT22;8962;52.538;13.266;2022-07-30T01:45:06;19.50;99.90
17687;DHT22;8962;52.538;13.266;2022-07-30T01:47:36;19.50;99.90
17687;DHT22;8962;52.538;13.266;2022-07-30T01:50:06;19.50;99.90
17687;DHT22;8962;52.538;13.266;2022-07-30T01:52:35;19.40;99.90
17687;DHT22;8962;52.538;13.266;2022-07-30T01:55:05;19.40;99.90
17687;DHT22;8962;52.538;13.266;2022-07-30T01:57:36;19.40;99.90
17687;DHT22;8962;52.538;13.266;2022-07-30T02:00:06;19.40;99.90
17687;DHT22;8962;52.538;13.266;2022-07-30T02:02:42;19.30;99.90
17687;DHT22;8962;52.538;13.266;2022-07-30T02:05:10;19.30;99.90
17687;DHT22;8962;52.538;13.266;2022-07-30T02:07:39;19.30;99.90
17687;DHT22;8962;52.538;13.266;2022-07-30T02:10:12;19.30;99.90
17687;DHT22;8962;52.538;13.266;2022-07-30T02:12:50;19.30;99.90
17687;DHT22;8962;52.538;13.266;2022-07-30T02:15:24;19.30;99.90
17687;DHT22;8962;52.538;13.266;2022-07-30T02:17:58;19.30;99.90
17687;DHT22;8962;52.538;13.266;2022-07-30T02:20:27;19.30;99.90
17687;DHT22;8962;52.538;13.266;2022-07-30T02:22:59;19.30;99.90
17687;DHT22;8962;52.538;13.266;2022-07-30T02:25:28;19.30;99.90
17687;DHT22;8962;52.538;13.266;2022-07-30T02:28:01;19.30;99.90
17687;DHT22;8962;52.538;13.266;2022-07-30T02:30:31;19.30;99.90
17687;DHT22;8962;52.538;13.266;2022-07-30T02:33:04;19.20;99.90
17687;DHT22;8962;52.538;13.266;2022-07-30T02:35:33;19.20;99.90
17687;DHT22;8962;52.538;13.266;2022-07-30T02:38:01;19.20;99.90
17687;DHT22;8962;52.538;13.266;2022-07-30T02:40:30;19.10;99.90
17687;DHT22;8962;52.538;13.266;2022-07-30T02:43:00;19.10;99.90
17687;DHT22;8962;52.538;13.266;2022-07-30T02:45:29;19.00;99.90
17687;DHT22;8962;52.538;13.266;2022-07-30T02:47:58;19.00;99.90
17687;DHT22;8962;52.538;13.266;2022-07-30T02:50:27;18.90;99.90
17687;DHT22;8962;52.538;13.266;2022-07-30T02:52:57;18.90;99.90
17687;DHT22;8962;52.538;13.266;2022-07-30T02:55:27;18.90;99.90
17687;DHT22;8962;52.538;13.266;2022-07-30T02:57:54;18.90;99.90
17687;DHT22;8962;52.538;13.266;2022-07-30T03:00:26;18.80;99.90
17687;DHT22;8962;52.538;13.266;2022-07-30T03:02:56;18.80;99.90
17687;DHT22;8962;52.538;13.266;2022-07-30T03:05:25;18.80;99.90
17687;DHT22;8962;52.538;13.266;2022-07-30T03:07:54;18.80;99.90
17687;DHT22;8962;52.538;13.266;2022-07-30T03:10:24;18.80;99.90
17687;DHT22;8962;52.538;13.266;2022-07-30T03:12:53;18.80;99.90
17687;DHT22;8962;52.538;13.266;2022-07-30T03:15:20;18.70;99.90
17687;DHT22;8962;52.538;13.266;2022-07-30T03:17:52;18.70;99.90
17687;DHT22;8962;52.538;13.266;2022-07-30T03:20:26;18.70;99.90
17687;DHT22;8962;52.538;13.266;2022-07-30T03:23:01;18.70;99.90
17687;DHT22;8962;52.538;13.266;2022-07-30T03:25:32;18.70;99.90
17687;DHT22;8962;52.538;13.266;2022-07-30T03:28:02;18.70;99.90
17687;DHT22;8962;52.538;13.266;2022-07-30T03:30:30;18.70;99.90
17687;DHT22;8962;52.538;13.266;2022-07-30T03:33:00;18.70;99.90
17687;DHT22;8962;52.538;13.266;2022-07-30T03:35:29;18.70;99.90
17687;DHT22;8962;52.538;13.266;2022-07-30T03:37:56;18.70;99.90
17687;DHT22;8962;52.538;13.266;2022-07-30T03:40:25;18.70;99.90
17687;DHT22;8962;52.538;13.266;2022-07-30T03:42:54;18.70;99.90
17687;DHT22;8962;52.538;13.266;2022-07-30T03:45:24;18.60;99.90
17687;DHT22;8962;52.538;13.266;2022-07-30T03:47:57;18.60;99.90
17687;DHT22;8962;52.538;13.266;2022-07-30T03:50:28;18.70;99.90
17687;DHT22;8962;52.538;13.266;2022-07-30T03:52:55;18.70;99.90
17687;DHT22;8962;52.538;13.266;2022-07-30T03:55:24;18.70;99.90
17687;DHT22;8962;52.538;13.266;2022-07-30T03:58:23;18.60;99.90
17687;DHT22;8962;52.538;13.266;2022-07-30T04:00:52;18.60;99.90
17687;DHT22;8962;52.538;13.266;2022-07-30T04:03:25;18.60;99.90
17687;DHT22;8962;52.538;13.266;2022-07-30T04:05:58;18.60;99.90
17687;DHT22;8962;52.538;13.266;2022-07-30T04:08:26;18.60;99.90
17687;DHT22;8962;52.538;13.266;2022-07-30T04:10:57;18.60;99.90
17687;DHT22;8962;52.538;13.266;2022-07-30T04:13:43;18.60;99.90
17687;DHT22;8962;52.538;13.266;2022-07-30T04:16:15;18.70;99.90
17687;DHT22;8962;52.538;13.266;2022-07-30T04:18:47;18.70;99.90
17687;DHT22;8962;52.538;13.266;2022-07-30T04:21:19;18.70;99.90
17687;DHT22;8962;52.538;13.266;2022-07-30T04:23:51;18.70;99.90
17687;DHT22;8962;52.538;13.266;2022-07-30T04:26:21;18.60;99.90
17687;DHT22;8962;52.538;13.266;2022-07-30T04:28:49;18.70;99.90
17687;DHT22;8962;52.538;13.266;2022-07-30T04:31:22;18.60;99.90
17687;DHT22;8962;52.538;13.266;2022-07-30T04:33:58;18.70;99.90
17687;DHT22;8962;52.538;13.266;2022-07-30T04:36:38;18.60;99.90
17687;DHT22;8962;52.538;13.266;2022-07-30T04:39:10;18.70;99.90
17687;DHT22;8962;52.538;13.266;2022-07-30T04:41:38;18.70;99.90
17687;DHT22;8962;52.538;13.266;2022-07-30T04:44:43;18.70;99.90
17687;DHT22;8962;52.538;13.266;2022-07-30T04:47:24;18.70;99.90
17687;DHT22;8962;52.538;13.266;2022-07-30T04:50:09;18.70;99.90
17687;DHT22;8962;52.538;13.266;2022-07-30T04:52:39;18.80;99.90
17687;DHT22;8962;52.538;13.266;2022-07-30T04:55:08;18.80;99.90
17687;DHT22;8962;52.538;13.266;2022-07-30T04:57:39;18.80;99.90
17687;DHT22;8962;52.538;13.266;2022-07-30T05:00:09;18.80;99.90
17687;DHT22;8962;52.538;13.266;2022-07-30T05:02:39;18.80;99.90
17687;DHT22;8962;52.538;13.266;2022-07-30T05:05:08;18.90;99.90
17687;DHT22;8962;52.538;13.266;2022-07-30T05:07:40;18.90;99.90
17687;DHT22;8962;52.538;13.266;2022-07-30T05:10:10;18.90;99.90
17687;DHT22;8962;52.538;13.266;2022-07-30T05:12:38;19.00;99.90
17687;DHT22;8962;52.538;13.266;2022-07-30T05:15:08;19.10;99.90
17687;DHT22;8962;52.538;13.266;2022-07-30T05:17:36;19.10;99.90
17687;DHT22;8962;52.538;13.266;2022-07-30T05:20:07;19.20;99.90
17687;DHT22;8962;52.538;13.266;2022-07-30T05:23:01;19.10;99.90
17687;DHT22;8962;52.538;13.266;2022-07-30T05:25:29;19.10;99.90
17687;DHT22;8962;52.538;13.266;2022-07-30T05:28:14;19.20;99.90
17687;DHT22;8962;52.538;13.266;2022-07-30T05:30:42;19.20;99.90
17687;DHT22;8962;52.538;13.266;2022-07-30T05:33:12;19.10;99.90
17687;DHT22;8962;52.538;13.266;2022-07-30T05:35:40;19.10;99.90
17687;DHT22;8962;52.538;13.266;2022-07-30T05:38:17;19.20;99.90
17687;DHT22;8962;52.538;13.266;2022-07-30T05:41:08;19.20;99.90
17687;DHT22;8962;52.538;13.266;2022-07-30T05:43:54;19.00;99.90
17687;DHT22;8962;52.538;13.266;2022-07-30T05:46:23;19.00;99.90
17687;DHT22;8962;52.538;13.266;2022-07-30T05:48:50;19.10;99.90
17687;DHT22;8962;52.538;13.266;2022-07-30T05:51:17;19.20;99.90
17687;DHT22;8962;52.538;13.266;2022-07-30T05:53:47;19.30;99.90
17687;DHT22;8962;52.538;13.266;2022-07-30T05:56:35;19.20;99.90
17687;DHT22;8962;52.538;13.266;2022-07-30T05:59:18;19.30;99.90
17687;DHT22;8962;52.538;13.266;2022-07-30T06:02:02;19.30;99.90
17687;DHT22;8962;52.538;13.266;2022-07-30T06:04:51;19.10;99.90
17687;DHT22;8962;52.538;13.266;2022-07-30T06:07:21;19.20;99.90
17687;DHT22;8962;52.538;13.266;2022-07-30T06:09:58;19.20;99.90
17687;DHT22;8962;52.538;13.266;2022-07-30T06:12:27;19.10;99.90
17687;DHT22;8962;52.538;13.266;2022-07-30T06:14:57;19.20;99.90
17687;DHT22;8962;52.538;13.266;2022-07-30T06:17:47;19.30;99.90
17687;DHT22;8962;52.538;13.266;2022-07-30T06:20:19;19.40;99.90
17687;DHT22;8962;52.538;13.266;2022-07-30T06:23:07;19.50;99.90
17687;DHT22;8962;52.538;13.266;2022-07-30T06:25:57;19.60;99.90
17687;DHT22;8962;52.538;13.266;2022-07-30T06:28:27;19.60;99.90
17687;DHT22;8962;52.538;13.266;2022-07-30T06:30:56;19.60;99.90
17687;DHT22;8962;52.538;13.266;2022-07-30T06:33:27;19.60;99.90
17687;DHT22;8962;52.538;13.266;2022-07-30T06:35:57;19.60;99.90
17687;DHT22;8962;52.538;13.266;2022-07-30T06:38:27;19.60;99.90
17687;DHT22;8962;52.538;13.266;2022-07-30T06:41:02;19.60;99.90
17687;DHT22;8962;52.538;13.266;2022-07-30T06:43:49;19.80;99.90
17687;DHT22;8962;52.538;13.266;2022-07-30T06:46:52;20.00;99.90
17687;DHT22;8962;52.538;13.266;2022-07-30T06:49:23;20.10;99.90
17687;DHT22;8962;52.538;13.266;2022-07-30T06:51:51;20.20;99.90
17687;DHT22;8962;52.538;13.266;2022-07-30T06:54:21;20.20;99.90
17687;DHT22;8962;52.538;13.266;2022-07-30T06:57:07;20.30;99.90
17687;DHT22;8962;52.538;13.266;2022-07-30T06:59:35;20.10;99.90
17687;DHT22;8962;52.538;13.266;2022-07-30T07:02:14;20.00;99.90
17687;DHT22;8962;52.538;13.266;2022-07-30T07:05:10;20.10;99.90
17687;DHT22;8962;52.538;13.266;2022-07-30T07:07:39;20.20;99.90
17687;DHT22;8962;52.538;13.266;2022-07-30T07:10:09;20.20;99.90
17687;DHT22;8962;52.538;13.266;2022-07-30T07:12:54;20.00;99.90
17687;DHT22;8962;52.538;13.266;2022-07-30T07:15:27;20.00;99.90
17687;DHT22;8962;52.538;13.266;2022-07-30T07:17:55;20.10;99.90
17687;DHT22;8962;52.538;13.266;2022-07-30T07:20:34;20.20;99.90
17687;DHT22;8962;52.538;13.266;2022-07-30T07:23:04;20.30;99.90
17687;DHT22;8962;52.538;13.266;2022-07-30T07:25:32;20.20;99.90
17687;DHT22;8962;52.538;13.266;2022-07-30T07:28:01;20.30;99.90
17687;DHT22;8962;52.538;13.266;2022-07-30T07:30:31;20.40;99.90
17687;DHT22;8962;52.538;13.266;2022-07-30T07:33:03;20.40;99.90
17687;DHT22;8962;52.538;13.266;2022-07-30T07:35:34;20.50;99.90
17687;DHT22;8962;52.538;13.266;2022-07-30T07:38:02;20.80;99.90
17687;DHT22;8962;52.538;13.266;2022-07-30T07:40:29;20.60;99.90
17687;DHT22;8962;52.538;13.266;2022-07-30T07:42:57;20.50;99.90
17687;DHT22;8962;52.538;13.266;2022-07-30T07:45:25;20.50;99.90
17687;DHT22;8962;52.538;13.266;2022-07-30T07:48:01;20.50;99.90
17687;DHT22;8962;52.538;13.266;2022-07-30T07:50:48;20.70;99.90
17687;DHT22;8962;52.538;13.266;2022-07-30T07:53:35;20.80;99.90
17687;DHT22;8962;52.538;13.266;2022-07-30T07:56:02;21.00;99.90
17687;DHT22;8962;52.538;13.266;2022-07-30T07:58:33;21.10;99.90
17687;DHT22;8962;52.538;13.266;2022-07-30T08:01:02;21.20;99.90
17687;DHT22;8962;52.538;13.266;2022-07-30T08:03:50;21.30;99.90
17687;DHT22;8962;52.538;13.266;2022-07-30T08:06:36;21.30;99.90
17687;DHT22;8962;52.538;13.266;2022-07-30T08:09:23;21.40;99.90
17687;DHT22;8962;52.538;13.266;2022-07-30T08:12:13;21.50;99.90
17687;DHT22;8962;52.538;13.266;2022-07-30T08:15:22;21.40;99.90
17687;DHT22;8962;52.538;13.266;2022-07-30T08:18:09;21.40;99.90
17687;DHT22;8962;52.538;13.266;2022-07-30T08:21:07;21.40;99.90
17687;DHT22;8962;52.538;13.266;2022-07-30T08:23:35;21.20;99.90
17687;DHT22;8962;52.538;13.266;2022-07-30T08:26:03;21.40;99.90
17687;DHT22;8962;52.538;13.266;2022-07-30T08:28:30;21.70;99.90
17687;DHT22;8962;52.538;13.266;2022-07-30T08:30:59;22.00;99.90
17687;DHT22;8962;52.538;13.266;2022-07-30T08:33:29;22.00;99.90
17687;DHT22;8962;52.538;13.266;2022-07-30T08:36:01;21.90;99.90
17687;DHT22;8962;52.538;13.266;2022-07-30T08:38:28;22.00;99.90
17687;DHT22;8962;52.538;13.266;2022-07-30T08:40:56;22.30;99.90
17687;DHT22;8962;52.538;13.266;2022-07-30T08:43:24;21.80;99.90
17687;DHT22;8962;52.538;13.266;2022-07-30T08:45:55;22.10;99.90
17687;DHT22;8962;52.538;13.266;2022-07-30T08:48:39;22.30;99.90
17687;DHT22;8962;52.538;13.266;2022-07-30T08:51:07;22.60;99.90
17687;DHT22;8962;52.538;13.266;2022-07-30T08:53:55;22.80;99.90
17687;DHT22;8962;52.538;13.266;2022-07-30T08:56:23;22.90;99.90
17687;DHT22;8962;52.538;13.266;2022-07-30T08:58:51;22.90;99.90
17687;DHT22;8962;52.538;13.266;2022-07-30T09:01:19;22.80;99.90
17687;DHT22;8962;52.538;13.266;2022-07-30T09:03:50;22.70;99.90
17687;DHT22;8962;52.538;13.266;2022-07-30T09:06:18;22.60;99.90
17687;DHT22;8962;52.538;13.266;2022-07-30T09:08:46;22.50;99.90
17687;DHT22;8962;52.538;13.266;2022-07-30T09:11:16;22.90;99.90
17687;DHT22;8962;52.538;13.266;2022-07-30T09:13:44;23.00;99.90
17687;DHT22;8962;52.538;13.266;2022-07-30T09:16:20;23.00;99.90
17687;DHT22;8962;52.538;13.266;2022-07-30T09:18:51;22.90;99.90
17687;DHT22;8962;52.538;13.266;2022-07-30T09:21:20;22.90;99.90
17687;DHT22;8962;52.538;13.266;2022-07-30T09:23:57;22.90;99.90
17687;DHT22;8962;52.538;13.266;2022-07-30T09:26:58;23.20;99.90
17687;DHT22;8962;52.538;13.266;2022-07-30T09:29:58;23.10;99.90
17687;DHT22;8962;52.538;13.266;2022-07-30T09:32:50;23.60;99.90
17687;DHT22;8962;52.538;13.266;2022-07-30T09:35:40;23.60;99.90
17687;DHT22;8962;52.538;13.266;2022-07-30T09:38:10;23.80;99.90
17687;DHT22;8962;52.538;13.266;2022-07-30T09:41:04;24.10;99.90
17687;DHT22;8962;52.538;13.266;2022-07-30T09:43:45;23.90;99.90
17687;DHT22;8962;52.538;13.266;2022-07-30T09:46:22;24.10;99.90
17687;DHT22;8962;52.538;13.266;2022-07-30T09:48:49;24.20;99.90
17687;DHT22;8962;52.538;13.266;2022-07-30T09:51:36;23.90;99.90
17687;DHT22;8962;52.538;13.266;2022-07-30T09:54:04;23.90;99.90
17687;DHT22;8962;52.538;13.266;2022-07-30T09:56:31;24.30;99.90
17687;DHT22;8962;52.538;13.266;2022-07-30T09:58:59;24.40;99.90
17687;DHT22;8962;52.538;13.266;2022-07-30T10:01:26;24.70;99.90
17687;DHT22;8962;52.538;13.266;2022-07-30T10:04:23;24.60;99.90
17687;DHT22;8962;52.538;13.266;2022-07-30T10:07:01;24.60;99.90
17687;DHT22;8962;52.538;13.266;2022-07-30T10:09:35;24.50;99.90
17687;DHT22;8962;52.538;13.266;2022-07-30T10:12:04;24.80;99.90
17687;DHT22;8962;52.538;13.266;2022-07-30T10:14:35;24.70;99.90
17687;DHT22;8962;52.538;13.266;2022-07-30T10:17:03;24.90;99.90
17687;DHT22;8962;52.538;13.266;2022-07-30T10:19:36;25.00;99.90
17687;DHT22;8962;52.538;13.266;2022-07-30T10:22:25;25.10;99.90
17687;DHT22;8962;52.538;13.266;2022-07-30T10:25:12;25.40;99.90
17687;DHT22;8962;52.538;13.266;2022-07-30T10:27:58;25.60;99.90
17687;DHT22;8962;52.538;13.266;2022-07-30T10:30:30;25.30;99.90
17687;DHT22;8962;52.538;13.266;2022-07-30T10:33:00;25.10;99.90
17687;DHT22;8962;52.538;13.266;2022-07-30T10:35:27;24.70;99.90
17687;DHT22;8962;52.538;13.266;2022-07-30T10:37:57;25.00;99.90
17687;DHT22;8962;52.538;13.266;2022-07-30T10:40:29;25.40;99.90
17687;DHT22;8962;52.538;13.266;2022-07-30T10:43:25;25.80;99.90
17687;DHT22;8962;52.538;13.266;2022-07-30T10:46:01;25.50;99.90
17687;DHT22;8962;52.538;13.266;2022-07-30T10:48:35;25.70;99.90
17687;DHT22;8962;52.538;13.266;2022-07-30T10:51:03;25.70;99.90
17687;DHT22;8962;52.538;13.266;2022-07-30T10:53:36;25.90;99.90
17687;DHT22;8962;52.538;13.266;2022-07-30T10:56:12;26.20;99.90
17687;DHT22;8962;52.538;13.266;2022-07-30T10:59:00;25.80;99.90
17687;DHT22;8962;52.538;13.266;2022-07-30T11:04:30;26.50;99.90
17687;DHT22;8962;52.538;13.266;2022-07-30T11:07:26;26.10;99.90
17687;DHT22;8962;52.538;13.266;2022-07-30T11:09:56;26.20;99.90
17687;DHT22;8962;52.538;13.266;2022-07-30T11:12:50;26.20;99.90
17687;DHT22;8962;52.538;13.266;2022-07-30T11:15:18;26.40;99.90
17687;DHT22;8962;52.538;13.266;2022-07-30T11:18:00;26.50;99.90
17687;DHT22;8962;52.538;13.266;2022-07-30T11:20:28;26.50;99.90
17687;DHT22;8962;52.538;13.266;2022-07-30T11:23:08;26.60;99.90
17687;DHT22;8962;52.538;13.266;2022-07-30T11:25:41;26.70;99.90
17687;DHT22;8962;52.538;13.266;2022-07-30T11:28:36;27.00;99.90
17687;DHT22;8962;52.538;13.266;2022-07-30T11:31:27;27.30;99.90
17687;DHT22;8962;52.538;13.266;2022-07-30T11:34:25;27.60;99.90
17687;DHT22;8962;52.538;13.266;2022-07-30T11:37:09;27.80;99.90
17687;DHT22;8962;52.538;13.266;2022-07-30T11:40:10;27.90;99.90
17687;DHT22;8962;52.538;13.266;2022-07-30T11:42:40;28.60;99.90
17687;DHT22;8962;52.538;13.266;2022-07-30T11:45:24;29.10;99.90
17687;DHT22;8962;52.538;13.266;2022-07-30T11:47:59;29.90;99.70
17687;DHT22;8962;52.538;13.266;2022-07-30T11:50:33;29.80;98.40
17687;DHT22;8962;52.538;13.266;2022-07-30T11:53:03;30.80;96.70
17687;DHT22;8962;52.538;13.266;2022-07-30T11:55:31;31.20;95.50
17687;DHT22;8962;52.538;13.266;2022-07-30T11:58:05;31.50;94.30
17687;DHT22;8962;52.538;13.266;2022-07-30T12:00:34;30.60;93.90
17687;DHT22;8962;52.538;13.266;2022-07-30T12:03:06;31.00;94.00
17687;DHT22;8962;52.538;13.266;2022-07-30T12:05:34;31.00;92.50
17687;DHT22;8962;52.538;13.266;2022-07-30T12:08:01;30.20;92.60
17687;DHT22;8962;52.538;13.266;2022-07-30T12:10:28;29.70;92.40
17687;DHT22;8962;52.538;13.266;2022-07-30T12:13:08;29.10;92.70
17687;DHT22;8962;52.538;13.266;2022-07-30T12:15:37;30.20;92.30
17687;DHT22;8962;52.538;13.266;2022-07-30T12:18:06;30.60;90.20
17687;DHT22;8962;52.538;13.266;2022-07-30T12:20:37;31.70;85.30
17687;DHT22;8962;52.538;13.266;2022-07-30T12:23:09;32.30;83.90
17687;DHT22;8962;52.538;13.266;2022-07-30T12:25:38;33.30;78.90
17687;DHT22;8962;52.538;13.266;2022-07-30T12:28:08;32.60;78.20
17687;DHT22;8962;52.538;13.266;2022-07-30T12:30:37;32.20;77.10
17687;DHT22;8962;52.538;13.266;2022-07-30T12:33:05;33.30;75.00
17687;DHT22;8962;52.538;13.266;2022-07-30T12:35:44;32.80;73.90
17687;DHT22;8962;52.538;13.266;2022-07-30T12:38:11;31.20;76.70
17687;DHT22;8962;52.538;13.266;2022-07-30T12:40:54;30.40;76.80
17687;DHT22;8962;52.538;13.266;2022-07-30T12:43:46;29.20;79.50
17687;DHT22;8962;52.538;13.266;2022-07-30T12:46:18;30.80;78.10
17687;DHT22;8962;52.538;13.266;2022-07-30T12:48:53;31.80;73.90
17687;DHT22;8962;52.538;13.266;2022-07-30T12:51:21;33.70;69.80
17687;DHT22;8962;52.538;13.266;2022-07-30T12:53:49;34.70;66.60
17687;DHT22;8962;52.538;13.266;2022-07-30T12:56:21;34.10;64.40
17687;DHT22;8962;52.538;13.266;2022-07-30T12:58:51;31.50;68.50
17687;DHT22;8962;52.538;13.266;2022-07-30T13:01:19;32.70;69.90
17687;DHT22;8962;52.538;13.266;2022-07-30T13:04:05;32.60;69.00
17687;DHT22;8962;52.538;13.266;2022-07-30T13:06:32;32.10;70.10
17687;DHT22;8962;52.538;13.266;2022-07-30T13:09:03;31.30;70.60
17687;DHT22;8962;52.538;13.266;2022-07-30T13:11:38;32.60;70.10
17687;DHT22;8962;52.538;13.266;2022-07-30T13:14:09;33.50;66.50
17687;DHT22;8962;52.538;13.266;2022-07-30T13:16:39;33.80;64.40
17687;DHT22;8962;52.538;13.266;2022-07-30T13:19:07;33.70;63.10
17687;DHT22;8962;52.538;13.266;2022-07-30T13:21:36;33.40;63.10
17687;DHT22;8962;52.538;13.266;2022-07-30T13:24:05;32.40;64.00
17687;DHT22;8962;52.538;13.266;2022-07-30T13:26:34;31.90;66.00
17687;DHT22;8962;52.538;13.266;2022-07-30T13:29:01;33.20;64.00
17687;DHT22;8962;52.538;13.266;2022-07-30T13:31:30;34.30;62.50
17687;DHT22;8962;52.538;13.266;2022-07-30T13:33:58;34.50;60.30
17687;DHT22;8962;52.538;13.266;2022-07-30T13:36:25;35.60;59.00
17687;DHT22;8962;52.538;13.266;2022-07-30T13:38:52;35.20;58.80
17687;DHT22;8962;52.538;13.266;2022-07-30T13:41:21;34.50;59.70
17687;DHT22;8962;52.538;13.266;2022-07-30T13:43:49;35.60;57.50
17687;DHT22;8962;52.538;13.266;2022-07-30T13:46:17;34.90;58.50
17687;DHT22;8962;52.538;13.266;2022-07-30T13:48:48;34.50;57.30
17687;DHT22;8962;52.538;13.266;2022-07-30T13:51:15;33.90;59.20
17687;DHT22;8962;52.538;13.266;2022-07-30T13:53:43;33.30;60.40
17687;DHT22;8962;52.538;13.266;2022-07-30T13:56:11;33.70;59.80
17687;DHT22;8962;52.538;13.266;2022-07-30T13:58:39;34.90;57.30
17687;DHT22;8962;52.538;13.266;2022-07-30T14:01:06;35.30;57.00
17687;DHT22;8962;52.538;13.266;2022-07-30T14:03:35;35.80;54.90
17687;DHT22;8962;52.538;13.266;2022-07-30T14:06:06;34.80;55.60
17687;DHT22;8962;52.538;13.266;2022-07-30T14:08:33;35.30;54.90
17687;DHT22;8962;52.538;13.266;2022-07-30T14:11:01;35.60;53.60
17687;DHT22;8962;52.538;13.266;2022-07-30T14:13:28;35.70;53.90
17687;DHT22;8962;52.538;13.266;2022-07-30T14:15:58;35.80;52.10
17687;DHT22;8962;52.538;13.266;2022-07-30T14:18:26;35.00;53.20
17687;DHT22;8962;52.538;13.266;2022-07-30T14:20:53;35.30;53.00
17687;DHT22;8962;52.538;13.266;2022-07-30T14:23:21;33.90;55.40
17687;DHT22;8962;52.538;13.266;2022-07-30T14:25:49;33.30;56.40
17687;DHT22;8962;52.538;13.266;2022-07-30T14:28:17;32.60;58.40
17687;DHT22;8962;52.538;13.266;2022-07-30T14:30:44;30.80;61.10
17687;DHT22;8962;52.538;13.266;2022-07-30T14:33:14;30.10;62.30
17687;DHT22;8962;52.538;13.266;2022-07-30T14:35:41;29.80;64.80
17687;DHT22;8962;52.538;13.266;2022-07-30T14:38:08;29.50;66.30
17687;DHT22;8962;52.538;13.266;2022-07-30T14:40:36;30.80;64.80
17687;DHT22;8962;52.538;13.266;2022-07-30T14:43:03;33.40;59.90
17687;DHT22;8962;52.538;13.266;2022-07-30T14:45:31;34.40;56.80
17687;DHT22;8962;52.538;13.266;2022-07-30T14:47:58;34.80;56.30
17687;DHT22;8962;52.538;13.266;2022-07-30T14:50:24;34.90;55.90
17687;DHT22;8962;52.538;13.266;2022-07-30T14:52:53;36.60;53.70
17687;DHT22;8962;52.538;13.266;2022-07-30T14:55:20;35.00;53.30
17687;DHT22;8962;52.538;13.266;2022-07-30T14:57:49;35.30;54.60
17687;DHT22;8962;52.538;13.266;2022-07-30T15:00:17;35.00;53.90
17687;DHT22;8962;52.538;13.266;2022-07-30T15:02:44;34.50;55.20
17687;DHT22;8962;52.538;13.266;2022-07-30T15:05:11;35.40;53.90
17687;DHT22;8962;52.538;13.266;2022-07-30T15:07:38;36.50;52.40
17687;DHT22;8962;52.538;13.266;2022-07-30T15:10:06;37.30;50.80
17687;DHT22;8962;52.538;13.266;2022-07-30T15:12:34;38.10;49.00
17687;DHT22;8962;52.538;13.266;2022-07-30T15:15:04;37.50;49.50
17687;DHT22;8962;52.538;13.266;2022-07-30T15:17:34;37.20;49.50
17687;DHT22;8962;52.538;13.266;2022-07-30T15:20:05;36.10;50.20
17687;DHT22;8962;52.538;13.266;2022-07-30T15:22:33;34.90;51.70
17687;DHT22;8962;52.538;13.266;2022-07-30T15:25:02;35.10;52.40
17687;DHT22;8962;52.538;13.266;2022-07-30T15:27:29;36.50;51.20
17687;DHT22;8962;52.538;13.266;2022-07-30T15:29:56;36.30;50.60
17687;DHT22;8962;52.538;13.266;2022-07-30T15:32:29;35.80;50.40
17687;DHT22;8962;52.538;13.266;2022-07-30T15:35:02;34.50;52.00
17687;DHT22;8962;52.538;13.266;2022-07-30T15:37:29;33.60;53.00
17687;DHT22;8962;52.538;13.266;2022-07-30T15:39:56;35.00;52.30
17687;DHT22;8962;52.538;13.266;2022-07-30T15:42:24;36.90;50.40
17687;DHT22;8962;52.538;13.266;2022-07-30T15:44:53;36.90;49.00
17687;DHT22;8962;52.538;13.266;2022-07-30T15:47:21;37.70;48.30
17687;DHT22;8962;52.538;13.266;2022-07-30T15:49:52;37.10;48.10
17687;DHT22;8962;52.538;13.266;2022-07-30T15:52:19;36.10;49.50
17687;DHT22;8962;52.538;13.266;2022-07-30T15:54:46;34.90;51.20
17687;DHT22;8962;52.538;13.266;2022-07-30T15:57:13;33.40;53.80
17687;DHT22;8962;52.538;13.266;2022-07-30T15:59:40;31.10;55.80
17687;DHT22;8962;52.538;13.266;2022-07-30T16:02:10;30.60;58.80
17687;DHT22;8962;52.538;13.266;2022-07-30T16:04:37;29.50;60.00
17687;DHT22;8962;52.538;13.266;2022-07-30T16:07:06;29.00;61.70